Time;durP1;ratioP1;P1;durP2;ratioP2;P2;SDS_P1;SDS_P2;PMS_P1;PMS_P2;Temp;Humidity;BMP_temperature;BMP_pressure;BME280_temperature;BME280_humidity;BME280_pressure;Samples;Min_cycle;Max_cycle;Signal;HPM_P1;HPM_P2
2022/04/22 00:00:39;;;;;;;;;;;;;;;11.23;100.00;100113.22;5089020;28;19924;-77
2022/04/22 00:03:08;;;;;;;;;;;;;;;11.14;100.00;100103.41;5092891;28;20006;-75
2022/04/22 00:05:34;;;;;;;;;;;;;;;11.09;100.00;100105.00;5082573;28;20295;-75
2022/04/22 00:08:00;;;;;;;;;;;;;;;11.02;100.00;100098.72;5096592;28;19924;-75
2022/04/22 00:10:25;;;;;;;;;;;;;;;10.99;100.00;100095.16;5079382;28;19919;-75
2022/04/22 00:12:51;;;;;;;;;;;;;;;10.94;100.00;100095.03;5096019;28;19942;-75
2022/04/22 00:15:16;;;;;;;;;;;;;;;10.89;100.00;100084.41;5073253;28;19924;-73
2022/04/22 00:17:43;;;;;;;;;;;;;;;10.87;100.00;100082.59;5082790;28;19923;-75
2022/04/22 00:20:10;;;;;;;;;;;;;;;10.85;100.00;100084.31;5089293;28;20479;-76
2022/04/22 00:22:39;;;;;;;;;;;;;;;10.82;100.00;100077.22;5098593;28;19923;-75
2022/04/22 00:25:06;;;;;;;;;;;;;;;10.77;100.00;100081.50;5084656;28;19920;-74
2022/04/22 00:27:31;;;;;;;;;;;;;;;10.70;100.00;100074.28;5082735;28;19955;-76
2022/04/22 00:29:56;;;;;;;;;;;;;;;10.67;100.00;100069.84;5096522;28;19919;-75
2022/04/22 00:32:21;;;;;;;;;;;;;;;10.64;100.00;100072.41;5106115;28;19941;-76
2022/04/22 00:34:47;;;;;;;;;;;;;;;10.59;100.00;100068.78;5091905;28;20371;-76
2022/04/22 00:37:12;;;;;;;;;;;;;;;10.57;100.00;100063.47;5094047;28;19923;-76
2022/04/22 00:39:37;;;;;;;;;;;;;;;10.53;100.00;100061.66;5085259;28;20013;-76
2022/04/22 00:42:07;;;;;;;;;;;;;;;10.47;100.00;100055.31;5097021;28;19976;-77
2022/04/22 00:44:35;;;;;;;;;;;;;;;10.45;100.00;100047.41;5115815;28;20498;-76
2022/04/22 00:47:00;;;;;;;;;;;;;;;10.43;100.00;100050.88;5082993;28;19971;-75
2022/04/22 00:49:25;;;;;;;;;;;;;;;10.40;100.00;100042.03;5107586;28;20348;-77
2022/04/22 00:51:51;;;;;;;;;;;;;;;10.41;100.00;100049.06;5091686;28;19923;-75
2022/04/22 00:54:18;;;;;;;;;;;;;;;10.44;100.00;100047.34;5064844;28;19924;-76
2022/04/22 00:56:44;;;;;;;;;;;;;;;10.40;100.00;100052.56;5102305;28;19920;-74
2022/04/22 00:59:10;;;;;;;;;;;;;;;10.41;100.00;100053.47;5095416;28;19926;-77
2022/04/22 01:01:38;;;;;;;;;;;;;;;10.35;100.00;100055.94;5085628;28;20014;-77
2022/04/22 01:09:50;;;;;;;;;;;;;;;10.23;100.00;100048.59;5095371;28;19966;-76
2022/04/22 01:12:16;;;;;;;;;;;;;;;10.20;100.00;100038.00;5091338;28;19916;-77
2022/04/22 01:14:41;;;;;;;;;;;;;;;10.17;100.00;100035.28;5092508;28;19920;-76
2022/04/22 01:17:07;;;;;;;;;;;;;;;10.14;100.00;100033.47;5114562;28;19922;-77
2022/04/22 01:19:33;;;;;;;;;;;;;;;10.13;100.00;100025.53;5083161;28;19924;-76
2022/04/22 01:21:58;;;;;;;;;;;;;;;10.15;100.00;100037.00;5096773;28;20283;-77
2022/04/22 01:24:25;;;;;;;;;;;;;;;10.15;100.00;100030.00;5092893;28;20340;-77
2022/04/22 01:26:53;;;;;;;;;;;;;;;10.12;100.00;100032.53;5085613;28;20011;-76
2022/04/22 01:29:18;;;;;;;;;;;;;;;10.06;100.00;100033.28;5080681;28;19920;-77
2022/04/22 01:31:44;;;;;;;;;;;;;;;10.04;100.00;100029.72;5091234;28;19969;-78
2022/04/22 01:34:10;;;;;;;;;;;;;;;10.00;100.00;100019.09;5093840;28;19972;-78
2022/04/22 01:36:35;;;;;;;;;;;;;;;9.96;100.00;100027.75;5077736;28;19920;-77
2022/04/22 01:39:01;;;;;;;;;;;;;;;9.94;100.00;100022.44;5091089;28;20018;-77
2022/04/22 01:41:27;;;;;;;;;;;;;;;9.90;100.00;100017.97;5096464;28;19919;-77
2022/04/22 01:43:53;;;;;;;;;;;;;;;9.87;100.00;100015.28;5088158;28;19946;-78
2022/04/22 01:46:18;;;;;;;;;;;;;;;9.84;100.00;100009.94;5084373;28;19920;-77
2022/04/22 01:48:44;;;;;;;;;;;;;;;9.80;100.00;99994.91;5089956;28;20425;-77
2022/04/22 01:51:09;;;;;;;;;;;;;;;9.76;100.00;99993.09;5079605;28;19992;-78
2022/04/22 01:53:35;;;;;;;;;;;;;;;9.70;100.00;99994.69;5085738;28;19919;-76
2022/04/22 01:56:00;;;;;;;;;;;;;;;9.69;100.00;99986.75;5086926;28;19920;-78
2022/04/22 01:58:26;;;;;;;;;;;;;;;9.72;100.00;99978.06;5103397;28;19919;-75
2022/04/22 02:00:52;;;;;;;;;;;;;;;9.66;100.00;99979.69;5113294;27;19919;-74
2022/04/22 02:03:17;;;;;;;;;;;;;;;9.63;100.00;99963.84;5095114;28;19922;-74
2022/04/22 02:05:42;;;;;;;;;;;;;;;9.63;100.00;99960.31;5093836;28;20303;-75
2022/04/22 02:08:09;;;;;;;;;;;;;;;9.62;100.00;99959.44;5086735;28;20291;-75
2022/04/22 02:10:34;;;;;;;;;;;;;;;9.62;100.00;99956.81;5091723;28;19920;-76
2022/04/22 02:13:00;;;;;;;;;;;;;;;9.59;100.00;99946.22;5078554;28;20315;-77
2022/04/22 02:15:26;;;;;;;;;;;;;;;9.60;100.00;99942.75;5107527;28;19927;-77
2022/04/22 02:17:52;;;;;;;;;;;;;;;9.59;100.00;99935.69;5080576;28;19947;-75
2022/04/22 02:20:17;;;;;;;;;;;;;;;9.58;100.00;99933.91;5083384;28;20443;-77
2022/04/22 02:22:42;;;;;;;;;;;;;;;9.63;100.00;99924.41;5082110;28;19922;-76
2022/04/22 02:25:08;;;;;;;;;;;;;;;9.64;100.00;99931.44;5082572;28;20376;-74
2022/04/22 02:30:18;;;;;;;;;;;;;;;9.60;100.00;99907.66;5114375;28;20280;-78
2022/04/22 02:32:44;;;;;;;;;;;;;;;9.56;100.00;99911.97;5078588;28;19924;-77
2022/04/22 02:35:09;;;;;;;;;;;;;;;9.57;100.00;99908.50;5082021;28;20015;-77
2022/04/22 02:37:34;;;;;;;;;;;;;;;9.59;100.00;99912.03;5085316;28;20290;-76
2022/04/22 02:39:59;;;;;;;;;;;;;;;9.56;100.00;99924.22;5077408;28;19924;-77
2022/04/22 02:45:27;;;;;;;;;;;;;;;9.51;100.00;99903.09;5096535;28;19926;-76
2022/04/22 02:47:52;;;;;;;;;;;;;;;9.53;100.00;99912.75;5084336;28;19957;-76
2022/04/22 02:50:18;;;;;;;;;;;;;;;9.48;100.00;99903.88;5111875;28;20164;-78
2022/04/22 02:52:43;;;;;;;;;;;;;;;9.49;100.00;99908.31;5095652;28;19919;-78
2022/04/22 02:55:08;;;;;;;;;;;;;;;9.47;100.00;99901.22;5080284;28;19920;-77
2022/04/22 02:57:34;;;;;;;;;;;;;;;9.42;100.00;99894.97;5079907;28;20466;-77
2022/04/22 02:59:59;;;;;;;;;;;;;;;9.37;100.00;99888.69;5076558;28;19930;-77
2022/04/22 03:02:24;;;;;;;;;;;;;;;9.33;100.00;99891.22;5108006;28;20360;-78
2022/04/22 03:04:50;;;;;;;;;;;;;;;9.37;100.00;99867.66;5089348;28;20333;-77
2022/04/22 03:07:15;;;;;;;;;;;;;;;9.29;100.00;99871.00;5093113;28;19923;-76
2022/04/22 03:09:41;;;;;;;;;;;;;;;9.24;100.00;99871.72;5076365;28;19920;-77
2022/04/22 03:12:08;;;;;;;;;;;;;;;9.22;100.00;99861.19;5093900;28;19923;-77
2022/04/22 03:14:33;;;;;;;;;;;;;;;9.21;100.00;99856.75;5092295;28;20390;-75
2022/04/22 03:16:58;;;;;;;;;;;;;;;9.23;100.00;99846.31;5079885;28;19920;-76
2022/04/22 03:19:24;;;;;;;;;;;;;;;9.21;100.00;99843.63;5107121;27;20398;-74
2022/04/22 03:21:49;;;;;;;;;;;;;;;9.19;100.00;99824.34;5112142;27;19926;-76
2022/04/22 03:24:14;;;;;;;;;;;;;;;9.25;100.00;99821.84;5092741;28;19984;-74
2022/04/22 03:26:41;;;;;;;;;;;;;;;9.22;100.00;99807.78;5091010;28;19924;-76
2022/04/22 03:29:07;;;;;;;;;;;;;;;9.14;100.00;99802.31;5073833;28;20220;-76
2022/04/22 03:31:33;;;;;;;;;;;;;;;9.11;100.00;99794.38;5094196;28;20554;-75
2022/04/22 03:33:58;;;;;;;;;;;;;;;9.10;100.00;99784.69;5079030;28;19923;-76
2022/04/22 03:36:23;;;;;;;;;;;;;;;9.12;100.00;99775.13;5075020;28;19916;-74
2022/04/22 03:38:49;;;;;;;;;;;;;;;9.08;100.00;99766.28;5082206;28;19924;-75
2022/04/22 03:41:14;;;;;;;;;;;;;;;9.06;100.00;99757.50;5079728;28;20364;-75
2022/04/22 03:43:40;;;;;;;;;;;;;;;9.02;100.00;99742.50;5094032;27;19927;-74
2022/04/22 03:46:05;;;;;;;;;;;;;;;8.97;100.00;99733.63;5093920;28;19926;-75
2022/04/22 03:48:30;;;;;;;;;;;;;;;8.96;100.00;99727.50;5092727;28;19919;-76
2022/04/22 03:50:55;;;;;;;;;;;;;;;8.90;100.00;99714.22;5092976;28;19972;-75
2022/04/22 03:53:22;;;;;;;;;;;;;;;8.83;100.00;99699.16;5100161;28;19955;-74
2022/04/22 03:55:47;;;;;;;;;;;;;;;8.82;100.00;99676.38;5074930;28;19927;-75
2022/04/22 03:58:13;;;;;;;;;;;;;;;8.81;100.00;99656.25;5079796;28;20438;-75
2022/04/22 04:00:50;;;;;;;;;;;;;;;8.80;100.00;99646.59;5093335;28;20014;-75
2022/04/22 04:03:19;;;;;;;;;;;;;;;8.80;100.00;99615.09;5076974;28;20292;-76
2022/04/22 04:05:50;;;;;;;;;;;;;;;8.80;100.00;99604.59;5112874;28;19923;-76
2022/04/22 04:08:16;;;;;;;;;;;;;;;8.75;100.00;99591.34;5102105;28;19972;-78
2022/04/22 04:16:10;;;;;;;;;;;;;;;8.72;100.00;99528.28;5111592;28;20019;-75
2022/04/22 04:18:37;;;;;;;;;;;;;;;8.77;100.00;99507.41;5098488;28;19964;-75
2022/04/22 04:23:47;;;;;;;;;;;;;;;8.88;100.00;99479.63;5107563;28;20014;-75
2022/04/22 04:26:15;;;;;;;;;;;;;;;8.90;100.00;99467.44;5096408;28;19920;-75
2022/04/22 04:28:40;;;;;;;;;;;;;;;8.87;100.00;99458.59;5074854;28;19959;-76
2022/04/22 04:31:06;;;;;;;;;;;;;;;8.88;100.00;99444.63;5112073;28;20454;-77
2022/04/22 04:33:32;;;;;;;;;;;;;;;8.90;100.00;99438.56;5085829;28;20347;-76
2022/04/22 04:35:58;;;;;;;;;;;;;;;8.92;100.00;99426.34;5093220;28;20042;-77
2022/04/22 04:38:23;;;;;;;;;;;;;;;8.91;100.00;99424.56;5077493;28;19920;-74
2022/04/22 04:40:49;;;;;;;;;;;;;;;8.89;100.00;99413.16;5091277;28;19973;-76
2022/04/22 04:43:16;;;;;;;;;;;;;;;8.89;100.00;99402.66;5086595;28;20348;-75
2022/04/22 04:45:41;;;;;;;;;;;;;;;8.92;100.00;99396.59;5081228;28;19927;-75
2022/04/22 04:48:07;;;;;;;;;;;;;;;8.92;100.00;99394.84;5080024;28;19916;-77
2022/04/22 04:50:32;;;;;;;;;;;;;;;8.92;100.00;99399.22;5079671;28;19919;-76
2022/04/22 04:52:59;;;;;;;;;;;;;;;8.94;100.00;99397.50;5109614;28;19926;-76
2022/04/22 04:55:25;;;;;;;;;;;;;;;9.00;100.00;99395.00;5092549;28;20334;-75
2022/04/22 04:57:50;;;;;;;;;;;;;;;9.19;100.00;99383.06;5073715;28;19969;-76
2022/04/22 05:00:20;;;;;;;;;;;;;;;9.45;100.00;99372.16;5081437;28;19962;-75
2022/04/22 05:02:46;;;;;;;;;;;;;;;9.77;100.00;99356.00;5111791;28;19917;-75
2022/04/22 05:05:12;;;;;;;;;;;;;;;10.01;100.00;99372.16;5093590;28;19916;-74
2022/04/22 05:07:48;;;;;;;;;;;;;;;10.21;100.00;99377.69;5111168;28;19916;-76
2022/04/22 05:10:13;;;;;;;;;;;;;;;10.41;100.00;99387.66;5093002;28;19963;-74
2022/04/22 05:12:39;;;;;;;;;;;;;;;10.45;100.00;99406.97;5096297;28;19959;-74
2022/04/22 05:15:08;;;;;;;;;;;;;;;10.45;100.00;99421.00;5081193;28;19916;-74
2022/04/22 05:17:34;;;;;;;;;;;;;;;10.61;100.00;99440.50;5088181;28;19924;-75
2022/04/22 05:19:59;;;;;;;;;;;;;;;10.63;100.00;99462.50;5094352;28;20015;-73
2022/04/22 05:22:24;;;;;;;;;;;;;;;10.52;100.00;99483.41;5090449;28;20022;-74
2022/04/22 05:24:51;;;;;;;;;;;;;;;10.53;100.00;99486.91;5084986;28;20006;-74
2022/04/22 05:27:16;;;;;;;;;;;;;;;10.68;100.00;99497.66;5088959;28;19955;-74
2022/04/22 05:32:37;;;;;;;;;;;;;;;10.37;100.00;99513.00;5113757;27;19977;-74
2022/04/22 05:35:04;;;;;;;;;;;;;;;10.68;100.00;99502.94;5084898;28;20022;-74
2022/04/22 05:38:02;;;;;;;;;;;;;;;11.10;100.00;99509.63;5066043;28;19931;-74
2022/04/22 05:40:28;;;;;;;;;;;;;;;11.39;100.00;99522.28;5042457;28;19924;-75
2022/04/22 05:42:54;;;;;;;;;;;;;;;11.84;100.00;99542.06;5074877;28;19938;-75
2022/04/22 05:45:20;;;;;;;;;;;;;;;11.81;100.00;99571.06;5090142;28;20399;-75
2022/04/22 05:47:46;;;;;;;;;;;;;;;12.21;100.00;99582.03;5096592;28;19915;-74
2022/04/22 05:50:12;;;;;;;;;;;;;;;12.61;100.00;99605.22;5092874;28;19919;-74
2022/04/22 05:52:38;;;;;;;;;;;;;;;12.47;100.00;99654.41;5076055;28;19916;-76
2022/04/22 05:55:05;;;;;;;;;;;;;;;12.26;100.00;99678.84;5063118;28;19920;-76
2022/04/22 05:57:31;;;;;;;;;;;;;;;12.43;100.00;99685.19;5093594;28;19916;-78
2022/04/22 05:59:57;;;;;;;;;;;;;;;11.85;100.00;99688.03;5099417;28;19965;-77
2022/04/22 06:02:23;;;;;;;;;;;;;;;11.70;100.00;99672.00;5098120;28;19916;-75
2022/04/22 06:04:48;;;;;;;;;;;;;;;11.69;100.00;99673.78;5096994;28;19916;-77
2022/04/22 06:07:13;;;;;;;;;;;;;;;11.91;100.00;99661.72;5113809;28;19984;-76
2022/04/22 06:12:22;;;;;;;;;;;;;;;11.81;100.00;99684.47;5109825;27;19927;-78
2022/04/22 06:14:50;;;;;;;;;;;;;;;12.19;100.00;99689.31;5082815;28;20388;-77
2022/04/22 06:17:15;;;;;;;;;;;;;;;12.23;100.00;99702.56;5081796;28;20280;-77
2022/04/22 06:19:40;;;;;;;;;;;;;;;11.88;100.00;99703.88;5077283;28;19924;-78
2022/04/22 06:22:05;;;;;;;;;;;;;;;11.83;100.00;99708.22;5094015;28;19924;-76
2022/04/22 06:24:38;;;;;;;;;;;;;;;12.19;100.00;99694.59;5077230;28;19942;-79
2022/04/22 06:27:03;;;;;;;;;;;;;;;12.11;100.00;99703.31;5094175;28;19923;-78
2022/04/22 06:29:29;;;;;;;;;;;;;;;12.05;100.00;99709.41;5096046;28;19928;-75
2022/04/22 06:31:55;;;;;;;;;;;;;;;11.85;100.00;99699.47;5111061;28;19926;-77
2022/04/22 06:34:20;;;;;;;;;;;;;;;11.83;100.00;99703.81;5076316;28;19924;-75
2022/04/22 06:36:46;;;;;;;;;;;;;;;12.05;100.00;99711.16;5084379;28;19979;-75
2022/04/22 06:39:12;;;;;;;;;;;;;;;12.25;100.00;99712.28;5082765;28;19916;-75
2022/04/22 06:47:06;;;;;;;;;;;;;;;13.33;100.00;99729.13;5093295;28;19919;-75
2022/04/22 06:49:31;;;;;;;;;;;;;;;13.18;100.00;99779.19;5093140;28;19916;-74
2022/04/22 06:51:56;;;;;;;;;;;;;;;12.51;100.00;99786.47;5075148;28;20368;-75
2022/04/22 06:54:22;;;;;;;;;;;;;;;12.45;100.00;99767.94;5074987;28;19921;-75
2022/04/22 06:56:49;;;;;;;;;;;;;;;12.66;100.00;99766.38;5075162;28;19963;-76
2022/04/22 06:59:19;;;;;;;;;;;;;;;12.57;100.00;99775.97;5074869;28;19916;-76
2022/04/22 07:01:44;;;;;;;;;;;;;;;12.29;100.00;99765.97;5092823;28;19969;-78
2022/04/22 07:04:11;;;;;;;;;;;;;;;12.82;100.00;99760.38;5074029;28;19920;-74
2022/04/22 07:06:36;;;;;;;;;;;;;;;12.59;100.00;99777.78;5074674;28;19963;-77
2022/04/22 07:09:02;;;;;;;;;;;;;;;13.22;100.00;99765.13;5074716;28;19964;-75
2022/04/22 07:11:30;;;;;;;;;;;;;;;13.09;100.00;99790.56;5074644;28;20382;-75
2022/04/22 07:13:59;;;;;;;;;;;;;;;13.00;100.00;99812.50;5073799;28;19951;-75
2022/04/22 07:16:25;;;;;;;;;;;;;;;12.99;100.00;99801.91;5074727;28;19920;-75
2022/04/22 07:18:53;;;;;;;;;;;;;;;13.13;100.00;99816.16;5074206;28;19920;-75
2022/04/22 07:21:19;;;;;;;;;;;;;;;13.59;100.00;99813.91;5092314;28;19961;-74
2022/04/22 07:23:45;;;;;;;;;;;;;;;12.97;100.00;99844.19;5073980;28;19932;-75
2022/04/22 07:26:10;;;;;;;;;;;;;;;12.79;100.00;99822.88;5091895;28;19916;-75
2022/04/22 07:28:37;;;;;;;;;;;;;;;13.24;100.00;99813.63;5074080;28;19916;-75
2022/04/22 07:31:03;;;;;;;;;;;;;;;13.13;100.00;99828.47;5074521;28;20018;-76
2022/04/22 07:33:29;;;;;;;;;;;;;;;13.48;100.00;99825.28;5074596;28;19919;-75
2022/04/22 07:35:54;;;;;;;;;;;;;;;13.37;100.00;99834.00;5074180;28;19923;-75
2022/04/22 07:38:20;;;;;;;;;;;;;;;13.04;100.00;99839.88;5058211;28;20010;-76
2022/04/22 07:40:49;;;;;;;;;;;;;;;13.30;100.00;99832.19;5073984;28;19912;-76
2022/04/22 07:48:43;;;;;;;;;;;;;;;13.65;100.00;99842.16;5093093;28;19942;-76
2022/04/22 07:51:08;;;;;;;;;;;;;;;14.23;100.00;99846.94;5092174;28;20318;-76
2022/04/22 07:53:35;;;;;;;;;;;;;;;14.09;100.00;99868.06;5074585;28;19916;-77
2022/04/22 07:56:01;;;;;;;;;;;;;;;14.44;100.00;99877.06;5092257;28;19966;-76
2022/04/22 07:58:27;;;;;;;;;;;;;;;14.06;100.00;99878.63;5074785;28;19916;-78
2022/04/22 08:00:52;;;;;;;;;;;;;;;14.53;100.00;99877.97;5074228;28;20325;-79
2022/04/22 08:03:20;;;;;;;;;;;;;;;14.42;100.00;99897.31;5058252;28;20356;-77
2022/04/22 08:05:46;;;;;;;;;;;;;;;14.08;100.00;99905.97;5074780;28;19922;-80
2022/04/22 08:08:11;;;;;;;;;;;;;;;14.44;100.00;99875.28;5074600;28;20025;-78
2022/04/22 08:10:37;;;;;;;;;;;;;;;13.78;100.00;99907.53;5074426;28;19920;-78
2022/04/22 08:13:05;;;;;;;;;;;;;;;14.05;100.00;99883.91;5073994;28;19916;-77
2022/04/22 08:15:31;;;;;;;;;;;;;;;14.27;100.00;99901.69;5074089;28;19916;-78
2022/04/22 08:17:56;;;;;;;;;;;;;;;13.50;100.00;99913.44;5073871;28;19924;-76
2022/04/22 08:20:21;;;;;;;;;;;;;;;13.08;100.00;99870.72;5074219;28;19916;-77
2022/04/22 08:22:47;;;;;;;;;;;;;;;13.84;100.00;99861.69;5073447;28;19916;-76
2022/04/22 08:25:12;;;;;;;;;;;;;;;13.63;100.00;99879.19;5074056;28;19916;-77
2022/04/22 08:27:38;;;;;;;;;;;;;;;14.16;100.00;99872.47;5074376;28;19922;-76
2022/04/22 08:30:04;;;;;;;;;;;;;;;14.05;100.00;99908.59;5074098;28;19970;-78
2022/04/22 08:32:29;;;;;;;;;;;;;;;14.35;100.00;99904.38;5057041;28;20210;-78
2022/04/22 08:34:56;;;;;;;;;;;;;;;14.50;100.00;99917.69;5091934;28;20026;-79
2022/04/22 08:37:21;;;;;;;;;;;;;;;14.89;100.00;99929.38;5074199;28;20003;-78
2022/04/22 08:39:47;;;;;;;;;;;;;;;15.22;100.00;99926.81;5074153;28;19962;-76
2022/04/22 08:42:14;;;;;;;;;;;;;;;15.01;100.00;99948.88;5092398;28;19917;-80
2022/04/22 08:44:40;;;;;;;;;;;;;;;14.87;100.00;99935.56;5074151;28;20149;-79
2022/04/22 08:49:59;;;;;;;;;;;;;;;14.41;100.00;99928.25;5079922;28;20279;-77
2022/04/22 08:52:28;;;;;;;;;;;;;;;14.17;100.00;99935.16;5077579;28;19916;-77
2022/04/22 08:54:54;;;;;;;;;;;;;;;14.10;100.00;99916.56;5076708;28;19924;-77
2022/04/22 08:57:19;;;;;;;;;;;;;;;14.38;100.00;99930.88;5077162;28;19916;-76
2022/04/22 08:59:45;;;;;;;;;;;;;;;14.99;100.00;99935.63;5076734;28;19916;-75
2022/04/22 09:02:12;;;;;;;;;;;;;;;14.73;100.00;99975.25;5094453;28;19912;-75
2022/04/22 09:04:39;;;;;;;;;;;;;;;14.75;100.00;99984.09;5077170;28;19927;-75
2022/04/22 09:07:05;;;;;;;;;;;;;;;14.66;100.00;99976.09;5076259;28;19923;-75
2022/04/22 09:09:30;;;;;;;;;;;;;;;15.03;100.00;99987.75;5077106;28;19920;-75
2022/04/22 09:12:06;;;;;;;;;;;;;;;14.85;100.00;100044.22;5076394;28;19916;-75
2022/04/22 09:14:32;;;;;;;;;;;;;;;15.00;100.00;100059.31;5076362;28;19962;-75
2022/04/22 09:16:57;;;;;;;;;;;;;;;15.36;100.00;100108.09;5076925;28;19954;-74
2022/04/22 09:19:23;;;;;;;;;;;;;;;15.50;100.00;100120.56;5076792;28;19947;-74
2022/04/22 09:21:57;;;;;;;;;;;;;;;15.44;100.00;100143.53;5076183;28;19916;-76
2022/04/22 09:24:22;;;;;;;;;;;;;;;14.71;100.00;100176.66;5076509;28;19920;-75
2022/04/22 09:27:02;;;;;;;;;;;;;;;14.75;100.00;100160.78;5076943;28;19916;-75
2022/04/22 09:29:27;;;;;;;;;;;;;;;14.60;100.00;100180.03;5076533;28;19916;-76
2022/04/22 09:31:52;;;;;;;;;;;;;;;14.59;100.00;100155.31;5076249;28;20296;-77
2022/04/22 09:34:36;;;;;;;;;;;;;;;14.72;100.00;100167.78;5059517;28;19926;-75
2022/04/22 09:42:47;;;;;;;;;;;;;;;15.06;100.00;100188.38;5094002;28;19923;-75
2022/04/22 09:45:12;;;;;;;;;;;;;;;15.03;100.00;100205.16;5076374;28;19966;-75
2022/04/22 09:47:40;;;;;;;;;;;;;;;15.10;100.00;100215.81;5076472;28;19963;-76
2022/04/22 09:50:08;;;;;;;;;;;;;;;15.16;100.00;100237.06;5076456;28;19912;-77
2022/04/22 09:52:38;;;;;;;;;;;;;;;15.05;100.00;100251.13;5076143;28;20376;-76
2022/04/22 09:55:06;;;;;;;;;;;;;;;15.02;100.00;100304.16;5076072;28;19919;-77
2022/04/22 09:57:50;;;;;;;;;;;;;;;15.23;100.00;100297.25;5093693;28;20425;-77
2022/04/22 10:00:16;;;;;;;;;;;;;;;15.46;100.00;100309.78;5076112;28;19919;-76
2022/04/22 10:02:42;;;;;;;;;;;;;;;15.13;100.00;100364.31;5075389;28;20279;-77
2022/04/22 10:05:07;;;;;;;;;;;;;;;15.21;100.00;100363.53;5076422;28;19922;-74
2022/04/22 10:07:35;;;;;;;;;;;;;;;15.30;100.00;100373.31;5094090;28;20515;-76
2022/04/22 10:10:02;;;;;;;;;;;;;;;15.56;100.00;100385.94;5094002;28;19923;-77
2022/04/22 10:12:29;;;;;;;;;;;;;;;15.26;100.00;100390.09;5094586;28;19916;-78
2022/04/22 10:15:01;;;;;;;;;;;;;;;15.56;100.00;100381.50;5076090;28;19968;-77
2022/04/22 10:17:26;;;;;;;;;;;;;;;15.36;100.00;100375.16;5076357;28;19916;-76
2022/04/22 10:19:53;;;;;;;;;;;;;;;15.39;100.00;100364.56;5075974;28;20023;-75
2022/04/22 10:22:18;;;;;;;;;;;;;;;15.28;100.00;100395.41;5075872;28;20349;-75
2022/04/22 10:24:44;;;;;;;;;;;;;;;15.54;100.00;100406.28;5075523;28;19927;-77
2022/04/22 10:27:10;;;;;;;;;;;;;;;15.48;100.00;100424.78;5075576;28;19920;-77
2022/04/22 10:29:36;;;;;;;;;;;;;;;15.33;100.00;100423.75;5075512;28;19917;-76
2022/04/22 10:32:03;;;;;;;;;;;;;;;15.40;100.00;100452.13;5093184;28;19920;-76
2022/04/22 10:34:45;;;;;;;;;;;;;;;15.36;100.00;100452.97;5059327;28;19924;-74
2022/04/22 10:37:20;;;;;;;;;;;;;;;15.24;100.00;100447.53;5073286;28;19920;-78
2022/04/22 10:39:53;;;;;;;;;;;;;;;15.19;100.00;100414.78;5075245;28;20010;-76
2022/04/22 10:42:18;;;;;;;;;;;;;;;15.29;100.00;100434.31;5093898;28;19916;-78
2022/04/22 10:47:42;;;;;;;;;;;;;;;15.59;100.00;100436.38;5093774;28;20012;-77
2022/04/22 10:50:22;;;;;;;;;;;;;;;15.30;100.00;100449.38;5092845;28;19919;-78
2022/04/22 10:53:08;;;;;;;;;;;;;;;15.65;100.00;100439.09;5093401;28;19920;-78
2022/04/22 10:55:34;;;;;;;;;;;;;;;15.57;100.00;100464.69;5075734;28;19961;-76
2022/04/22 10:58:12;;;;;;;;;;;;;;;15.66;100.00;100458.53;5093196;28;20394;-77
2022/04/22 11:00:48;;;;;;;;;;;;;;;16.28;100.00;100457.28;5093578;28;19939;-76
2022/04/22 11:03:15;;;;;;;;;;;;;;;16.06;100.00;100478.38;5075263;28;19924;-75
2022/04/22 11:05:46;;;;;;;;;;;;;;;16.07;100.00;100485.47;5073702;28;20399;-76
2022/04/22 11:08:30;;;;;;;;;;;;;;;16.38;100.00;100488.34;5074128;28;19923;-75
2022/04/22 11:10:55;;;;;;;;;;;;;;;16.93;100.00;100513.50;5074166;28;19977;-75
2022/04/22 11:13:34;;;;;;;;;;;;;;;17.04;100.00;100514.41;5074755;28;19916;-75
2022/04/22 11:16:04;;;;;;;;;;;;;;;16.29;100.00;100514.88;5092533;28;20007;-76
2022/04/22 11:18:29;;;;;;;;;;;;;;;16.24;100.00;100493.56;5074875;28;20356;-74
2022/04/22 11:20:59;;;;;;;;;;;;;;;15.77;100.00;100481.69;5074102;28;19916;-75
2022/04/22 11:23:33;;;;;;;;;;;;;;;15.58;100.00;100490.31;5074431;28;19927;-76
2022/04/22 11:25:58;;;;;;;;;;;;;;;15.73;100.00;100469.22;5074076;28;19916;-75
2022/04/22 11:28:24;;;;;;;;;;;;;;;15.87;100.00;100472.03;5057652;28;19927;-76
2022/04/22 11:30:50;;;;;;;;;;;;;;;15.48;100.00;100488.47;5074297;28;20014;-75
2022/04/22 11:33:22;;;;;;;;;;;;;;;16.13;100.00;100482.88;5092463;28;19928;-77
2022/04/22 11:35:58;;;;;;;;;;;;;;;16.02;100.00;100523.50;5074543;28;19916;-77
2022/04/22 11:38:23;;;;;;;;;;;;;;;16.21;100.00;100513.94;5091022;28;19970;-75
2022/04/22 11:40:51;;;;;;;;;;;;;;;16.59;100.00;100522.13;5058437;28;19927;-75
2022/04/22 11:43:21;;;;;;;;;;;;;;;16.56;100.00;100534.53;5092567;28;19919;-77
2022/04/22 11:45:47;;;;;;;;;;;;;;;16.78;100.00;100548.81;5074875;28;19916;-76
2022/04/22 11:48:14;;;;;;;;;;;;;;;16.60;100.00;100550.50;5092721;28;19923;-77
2022/04/22 11:50:41;;;;;;;;;;;;;;;16.28;100.00;100567.13;5075354;28;19964;-78
2022/04/22 11:53:20;;;;;;;;;;;;;;;16.44;100.00;100551.28;5075431;28;20013;-77
2022/04/22 11:55:47;;;;;;;;;;;;;;;16.14;100.00;100558.13;5075680;28;20356;-75
2022/04/22 11:58:13;;;;;;;;;;;;;;;16.29;100.00;100550.28;5074498;28;20350;-75
2022/04/22 12:06:13;;;;;;;;;;;;;;;16.88;100.00;100528.56;5092937;28;20060;-75
2022/04/22 12:08:50;;;;;;;;;;;;;;;16.51;100.00;100521.22;5092311;28;19916;-77
2022/04/22 12:11:17;;;;;;;;;;;;;;;16.94;100.00;100515.28;5091996;28;19916;-77
2022/04/22 12:13:44;;;;;;;;;;;;;;;16.67;100.00;100515.13;5074164;28;20356;-74
2022/04/22 12:16:09;;;;;;;;;;;;;;;16.38;100.00;100506.97;5073528;28;19927;-75
2022/04/22 12:18:36;;;;;;;;;;;;;;;16.39;100.00;100514.06;5073989;28;19920;-77
2022/04/22 12:21:02;;;;;;;;;;;;;;;16.29;100.00;100506.91;5073912;28;20378;-74
2022/04/22 12:23:34;;;;;;;;;;;;;;;16.29;100.00;100523.72;5077481;28;19920;-75
2022/04/22 12:26:00;;;;;;;;;;;;;;;16.35;100.00;100544.13;5077728;28;19922;-78
2022/04/22 12:28:26;;;;;;;;;;;;;;;16.35;100.00;100538.81;5078063;28;20000;-77
2022/04/22 12:30:51;;;;;;;;;;;;;;;16.56;100.00;100538.06;5078074;28;19969;-77
2022/04/22 12:33:18;;;;;;;;;;;;;;;16.73;100.00;100554.13;5078245;28;19923;-75
2022/04/22 12:35:45;;;;;;;;;;;;;;;16.86;100.00;100563.13;5077683;28;19912;-79
2022/04/22 12:38:11;;;;;;;;;;;;;;;17.09;100.00;100549.94;5095225;28;19919;-78
2022/04/22 12:40:45;;;;;;;;;;;;;;;16.58;100.00;100568.22;5095956;28;19916;-75
2022/04/22 12:43:29;;;;;;;;;;;;;;;16.38;100.00;100556.56;5077325;28;19926;-76
2022/04/22 12:54:32;;;;;;;;;;;;;;;16.72;100.00;100531.09;5080368;28;19931;-75
2022/04/22 12:56:57;;;;;;;;;;;;;;;17.02;100.00;100550.78;5077136;28;19916;-77
2022/04/22 12:59:23;;;;;;;;;;;;;;;16.65;100.00;100554.06;5077148;28;19916;-78
2022/04/22 13:01:49;;;;;;;;;;;;;;;16.53;100.00;100546.03;5095547;28;19923;-77
2022/04/22 13:04:26;;;;;;;;;;;;;;;16.58;100.00;100557.59;5076967;28;19912;-75
2022/04/22 13:06:51;;;;;;;;;;;;;;;16.94;100.00;100547.19;5076877;28;19916;-79
2022/04/22 13:09:20;;;;;;;;;;;;;;;17.20;100.00;100552.63;5077289;28;20291;-79
2022/04/22 13:11:46;;;;;;;;;;;;;;;17.21;100.00;100538.44;5095396;28;19966;-78
2022/04/22 13:14:12;;;;;;;;;;;;;;;17.47;100.00;100540.31;5076648;28;19912;-79
2022/04/22 13:16:37;;;;;;;;;;;;;;;17.13;100.00;100541.06;5077187;28;20360;-79
2022/04/22 13:19:02;;;;;;;;;;;;;;;17.50;100.00;100538.53;5094993;28;19947;-78
2022/04/22 13:21:28;;;;;;;;;;;;;;;17.87;100.00;100543.06;5076492;28;19923;-77
2022/04/22 13:23:54;;;;;;;;;;;;;;;17.84;100.00;100551.03;5075523;28;20268;-77
2022/04/22 13:26:20;;;;;;;;;;;;;;;17.77;100.00;100551.03;5076441;28;19920;-79
2022/04/22 13:28:46;;;;;;;;;;;;;;;17.53;100.00;100556.28;5094111;28;19922;-77
2022/04/22 13:31:12;;;;;;;;;;;;;;;17.42;100.00;100553.59;5076136;28;20330;-76
2022/04/22 13:33:38;;;;;;;;;;;;;;;17.35;100.00;100552.66;5075625;28;19919;-76
2022/04/22 13:36:04;;;;;;;;;;;;;;;17.69;100.00;100552.75;5075646;28;19916;-76